Main page
METAR-TAF:

METAR-TAF

Airports :

Boscombe Down, England

MoD Boscombe Down

latitude: 51-10N, longitude: 001-45W, elevation: 124 m

Current weather observation

The report was made 1 hour and 5 minutes ago, at 17:50 UTC
Wind 14 kt from the East/Northeast
Temperature 13°C
Humidity 54%
Pressure 1020 hPa
Visibility 10 km or more

METAR: EGDM 261750Z AUTO 07014KT 9999 SCT210/// 13/04 Q1020

Time: 19:55 (18:55 UTC)

Forecast

The report was made 8 hours and 3 minutes ago, at 10:52 UTC
Forecast valid from 26 at 12 UTC to 26 at 17 UTC
Wind 13 kt from the East/Northeast
Visibility 10 km or more
no clouds below 1500 m and no cumulonimbus

TAF: EGDM 261052Z 2612/2617 07013KT CAVOK

Weather observations and forecasts of more than 4000 airports (METAR and TAF reports).

The available stations are represented by yellow and red dots on the map.

Hover mouse over dot to see the name of the station.

Then click to see weather observations and forecasts.

To change the map : click on the green buttons with a black cross to zoom in, on the green button with a dash to zoom out, or on the green arrows for adjacent maps.


METAR-TAF: